createdAt,value
2019-01-05T00:02:18.291Z,8.06
2019-01-05T00:04:52.218Z,8.04
2019-01-05T00:07:39.957Z,8.02
2019-01-05T00:10:27.510Z,7.99
2019-01-05T00:13:07.305Z,7.92
2019-01-05T00:15:56.878Z,7.92
2019-01-05T00:18:46.481Z,7.91
2019-01-05T00:21:33.620Z,7.90
2019-01-05T00:24:10.445Z,7.92
2019-01-05T00:26:41.748Z,7.89
2019-01-05T00:29:28.195Z,7.91
2019-01-05T00:32:22.614Z,7.91
2019-01-05T00:34:53.829Z,7.87
2019-01-05T00:37:27.700Z,7.88
2019-01-05T00:40:17.106Z,7.89
2019-01-05T00:42:54.515Z,7.91
2019-01-05T00:45:25.729Z,7.90
2019-01-05T00:47:59.640Z,7.86
2019-01-05T00:50:46.876Z,7.87
2019-01-05T00:53:34.085Z,7.90
2019-01-05T00:56:21.315Z,7.93
2019-01-05T00:59:08.639Z,7.94
2019-01-05T01:01:45.472Z,7.88
2019-01-05T01:04:34.714Z,7.91
2019-01-05T01:07:22.073Z,7.88
2019-01-05T01:09:53.279Z,7.91
2019-01-05T01:12:30.534Z,7.89
2019-01-05T01:15:10.652Z,7.87
2019-01-05T01:17:58.561Z,7.90
2019-01-05T01:20:45.848Z,7.88
2019-01-05T01:23:35.158Z,7.87
2019-01-05T01:26:22.576Z,7.86
2019-01-05T01:28:53.760Z,7.91
2019-01-05T01:31:25.036Z,7.87
2019-01-05T01:34:12.458Z,7.92
2019-01-05T01:36:43.691Z,7.93
2019-01-05T01:39:34.065Z,7.87
2019-01-05T01:42:14.752Z,7.87
2019-01-05T01:44:58.160Z,7.88
2019-01-05T01:47:46.319Z,7.87
2019-01-05T01:50:33.716Z,7.87
2019-01-05T01:53:08.736Z,7.88
2019-01-05T01:55:40.000Z,7.88
2019-01-05T01:58:11.143Z,7.86
2019-01-05T02:00:48.327Z,7.85
2019-01-05T02:03:19.620Z,7.84
2019-01-05T02:05:56.573Z,7.90
2019-01-05T02:08:44.277Z,7.87
2019-01-05T02:11:21.710Z,7.85
2019-01-05T02:14:05.147Z,7.85
2019-01-05T02:16:54.639Z,7.84
2019-01-05T02:19:36.373Z,7.84
2019-01-05T02:22:27.151Z,7.86
2019-01-05T02:25:28.404Z,7.84
2019-01-05T02:28:20.615Z,7.83
2019-01-05T02:31:00.958Z,7.85
2019-01-05T02:33:53.292Z,7.82
2019-01-05T02:36:55.998Z,7.81
2019-01-05T02:39:46.990Z,7.85
2019-01-05T02:42:43.274Z,7.81
2019-01-05T02:45:52.166Z,7.82
2019-01-05T02:48:50.431Z,7.82
2019-01-05T02:52:05.477Z,7.84
2019-01-05T02:54:51.660Z,7.84
2019-01-05T02:57:48.117Z,7.84
2019-01-05T03:00:42.828Z,7.85
2019-01-05T03:03:47.460Z,7.85
2019-01-05T03:06:40.829Z,7.81
2019-01-05T03:09:35.862Z,7.84
2019-01-05T03:12:31.041Z,7.82
2019-01-05T03:15:13.903Z,7.78
2019-01-05T03:18:06.668Z,7.78
2019-01-05T03:21:12.930Z,7.82
2019-01-05T03:24:06.406Z,7.81
2019-01-05T03:27:04.994Z,7.83
2019-01-05T03:30:00.252Z,7.81
2019-01-05T03:33:07.639Z,7.77
2019-01-05T03:36:13.831Z,7.84
2019-01-05T03:39:09.247Z,7.80
2019-01-05T03:42:21.466Z,7.83
2019-01-05T03:45:42.957Z,7.79
2019-01-05T03:49:07.137Z,7.79
2019-01-05T03:52:03.960Z,7.78
2019-01-05T03:55:07.272Z,7.78
2019-01-05T03:58:20.787Z,7.78
2019-01-05T04:01:29.854Z,7.74
2019-01-05T04:04:30.904Z,7.78
2019-01-05T04:07:34.049Z,7.78
2019-01-05T04:10:14.550Z,7.79
2019-01-05T04:13:22.403Z,7.80
2019-01-05T04:16:08.267Z,7.85
2019-01-05T04:19:17.261Z,7.85
2019-01-05T04:22:15.000Z,7.86
2019-01-05T04:25:08.746Z,7.84
2019-01-05T04:28:24.904Z,7.86
2019-01-05T04:31:31.349Z,7.84
2019-01-05T04:34:34.433Z,7.88
2019-01-05T04:37:50.070Z,7.96
2019-01-05T04:40:48.404Z,7.96
2019-01-05T04:43:40.713Z,8.03
2019-01-05T04:46:38.830Z,8.05
2019-01-05T04:49:38.571Z,8.03
2019-01-05T04:52:54.596Z,8.08
2019-01-05T04:55:46.332Z,8.13
2019-01-05T04:58:42.789Z,8.12
2019-01-05T05:01:39.420Z,8.08
2019-01-05T05:04:42.373Z,8.09
2019-01-05T05:07:45.446Z,8.08
2019-01-05T05:10:31.747Z,8.15
2019-01-05T05:13:46.561Z,8.08
2019-01-05T05:16:40.552Z,8.13
2019-01-05T05:19:26.832Z,8.12
2019-01-05T05:22:20.721Z,8.09
2019-01-05T05:25:00.738Z,8.20
2019-01-05T05:27:51.519Z,8.08
2019-01-05T05:31:16.767Z,8.08
2019-01-05T05:34:02.760Z,8.06
2019-01-05T05:36:56.759Z,8.07
2019-01-05T05:39:56.589Z,8.12
2019-01-05T05:42:48.920Z,8.16
2019-01-05T05:45:49.141Z,8.13
2019-01-05T05:48:51.811Z,8.10
2019-01-05T05:51:43.673Z,8.07
2019-01-05T05:54:40.704Z,8.08
2019-01-05T05:57:47.145Z,8.11
2019-01-05T06:00:42.384Z,8.11
2019-01-05T06:04:07.839Z,8.17
2019-01-05T06:07:07.695Z,8.18
2019-01-05T06:10:05.891Z,8.16
2019-01-05T06:13:04.602Z,8.12
2019-01-05T06:16:11.939Z,8.14
2019-01-05T06:19:08.705Z,8.15
2019-01-05T06:21:55.036Z,8.15
2019-01-05T06:24:51.826Z,8.21
2019-01-05T06:28:03.841Z,8.19
2019-01-05T06:31:22.386Z,8.19
2019-01-05T06:33:59.832Z,8.18
2019-01-05T06:36:53.640Z,8.16
2019-01-05T06:39:39.693Z,8.20
2019-01-05T06:42:41.150Z,8.25
2019-01-05T06:45:40.778Z,8.25
2019-01-05T06:48:42.266Z,8.17
2019-01-05T06:51:41.985Z,8.21
2019-01-05T06:54:41.984Z,8.21
2019-01-05T06:57:41.466Z,8.23
2019-01-05T07:00:47.393Z,8.22
2019-01-05T07:03:27.563Z,8.16
2019-01-05T07:06:30.542Z,8.21
2019-01-05T07:09:36.906Z,8.25
2019-01-05T07:12:36.985Z,8.23
2019-01-05T07:15:40.966Z,8.25
2019-01-05T07:18:21.113Z,8.26
2019-01-05T07:21:28.094Z,8.21
2019-01-05T07:24:54.105Z,8.23
2019-01-05T07:27:51.445Z,8.28
2019-01-05T07:31:15.726Z,8.31
2019-01-05T07:34:26.239Z,8.29
2019-01-05T07:37:44.682Z,8.28
2019-01-05T07:40:41.720Z,8.30
2019-01-05T07:43:32.042Z,8.25
2019-01-05T07:46:44.127Z,8.28
2019-01-05T07:50:07.235Z,8.29
2019-01-05T07:53:32.855Z,8.25
2019-01-05T07:56:16.397Z,8.14
2019-01-05T07:59:14.595Z,8.13
2019-01-05T08:01:51.598Z,8.17
2019-01-05T08:08:28.223Z,8.26
2019-01-05T08:11:24.021Z,8.19
2019-01-05T08:14:04.038Z,8.22
2019-01-05T08:17:03.837Z,8.23
2019-01-05T08:20:06.737Z,8.18
2019-01-05T08:23:16.866Z,8.20
2019-01-05T08:26:08.831Z,8.18
2019-01-05T08:28:49.239Z,8.15
2019-01-05T08:31:38.343Z,8.12
2019-01-05T08:34:30.556Z,8.11
2019-01-05T08:37:54.829Z,8.19
2019-01-05T08:41:02.756Z,8.13
2019-01-05T08:44:05.725Z,8.16
2019-01-05T08:47:14.186Z,8.14
2019-01-05T08:50:24.695Z,8.15
2019-01-05T08:53:10.867Z,8.19
2019-01-05T08:55:56.947Z,8.15
2019-01-05T08:58:51.108Z,8.17
2019-01-05T09:02:10.023Z,8.15
2019-01-05T09:05:03.818Z,8.19
2019-01-05T09:08:15.737Z,8.20
2019-01-05T09:11:30.682Z,8.19
2019-01-05T09:14:13.930Z,8.18
2019-01-05T09:17:33.927Z,8.15
2019-01-05T09:20:32.583Z,8.17
2019-01-05T09:23:29.284Z,8.19
2019-01-05T09:26:15.798Z,8.18
2019-01-05T09:29:32.656Z,8.20
2019-01-05T09:32:39.777Z,8.20
2019-01-05T09:35:46.777Z,8.20
2019-01-05T09:38:42.743Z,8.23
2019-01-05T09:41:39.657Z,8.28
2019-01-05T09:44:57.827Z,8.34
2019-01-05T09:48:13.130Z,8.34
2019-01-05T09:51:16.712Z,8.37
2019-01-05T09:54:16.918Z,8.41
2019-01-05T09:57:27.689Z,8.42
2019-01-05T10:00:47.473Z,8.45
2019-01-05T10:04:07.383Z,8.51
2019-01-05T10:07:16.105Z,8.58
2019-01-05T10:10:39.099Z,8.61
2019-01-05T10:13:36.033Z,8.65
2019-01-05T10:16:31.544Z,8.69
2019-01-05T10:19:28.256Z,8.69
2019-01-05T10:22:54.249Z,8.74
2019-01-05T10:25:52.009Z,8.67
2019-01-05T10:28:43.895Z,8.66
2019-01-05T10:31:43.599Z,8.61
2019-01-05T10:34:27.014Z,8.60
2019-01-05T10:37:22.643Z,8.67
2019-01-05T10:40:29.151Z,8.71
2019-01-05T10:43:32.067Z,8.76
2019-01-05T10:46:24.183Z,8.79
2019-01-05T10:49:33.111Z,8.91
2019-01-05T10:52:10.993Z,8.90
2019-01-05T10:55:40.757Z,8.93
2019-01-05T10:58:44.271Z,9.06
2019-01-05T11:01:57.149Z,9.07
2019-01-05T11:05:14.383Z,9.16
2019-01-05T11:08:12.942Z,9.31
2019-01-05T11:11:18.958Z,9.40
2019-01-05T11:14:21.956Z,9.58
2019-01-05T11:17:44.530Z,9.55
2019-01-05T11:20:36.944Z,9.45
2019-01-05T11:23:38.018Z,9.45
2019-01-05T11:26:27.641Z,9.45
2019-01-05T11:29:27.834Z,9.45
2019-01-05T11:32:47.526Z,9.39
2019-01-05T11:35:57.979Z,9.32
2019-01-05T11:38:51.870Z,9.24
2019-01-05T11:42:02.632Z,9.22
2019-01-05T11:44:48.966Z,9.19
2019-01-05T11:48:07.166Z,9.23
2019-01-05T11:51:02.819Z,9.26
2019-01-05T11:54:02.875Z,9.23
2019-01-05T11:56:42.974Z,9.19
2019-01-05T11:59:51.926Z,9.12
2019-01-05T12:02:47.426Z,9.11
2019-01-05T12:06:06.412Z,9.06
2019-01-05T12:09:07.819Z,9.11
2019-01-05T12:11:59.136Z,9.24
2019-01-05T12:15:03.577Z,9.30
2019-01-05T12:18:08.063Z,9.36
2019-01-05T12:21:14.740Z,9.32
2019-01-05T12:24:14.667Z,9.26
2019-01-05T12:26:58.045Z,9.24
2019-01-05T12:29:47.199Z,9.24
2019-01-05T12:32:57.676Z,9.23
2019-01-05T12:36:05.961Z,9.21
2019-01-05T12:39:12.035Z,9.21
2019-01-05T12:42:07.203Z,9.19
2019-01-05T12:45:11.568Z,9.13
2019-01-05T12:47:57.730Z,9.07
2019-01-05T12:51:20.096Z,8.97
2019-01-05T12:53:59.865Z,8.91
2019-01-05T12:56:55.141Z,8.93
2019-01-05T12:59:44.260Z,9.01
2019-01-05T13:02:50.023Z,9.03
2019-01-05T13:05:39.174Z,9.07
2019-01-05T13:08:46.905Z,9.12
2019-01-05T13:11:57.238Z,9.10
2019-01-05T13:14:54.047Z,9.10
2019-01-05T13:17:54.004Z,9.10
2019-01-05T13:20:54.328Z,9.10
2019-01-05T13:24:00.590Z,9.14
2019-01-05T13:26:55.476Z,9.20
2019-01-05T13:30:00.752Z,9.27
2019-01-05T13:32:51.780Z,9.36
2019-01-05T13:35:45.780Z,9.34
2019-01-05T13:38:56.835Z,9.27
2019-01-05T13:42:01.115Z,9.26
2019-01-05T13:44:56.690Z,9.25
2019-01-05T13:48:02.339Z,9.21
2019-01-05T13:50:58.751Z,9.15
2019-01-05T13:53:48.113Z,9.10
2019-01-05T13:56:21.878Z,9.14
2019-01-05T13:59:05.510Z,9.26
2019-01-05T14:01:36.694Z,9.11
2019-01-05T14:04:16.757Z,9.35
2019-01-05T14:07:04.140Z,9.21
2019-01-05T14:09:51.787Z,9.00
2019-01-05T14:12:29.343Z,9.03
2019-01-05T14:15:16.851Z,9.01
2019-01-05T14:18:04.453Z,9.06
2019-01-05T14:20:44.264Z,9.02
2019-01-05T14:23:31.868Z,8.97
2019-01-05T14:26:09.223Z,9.33
2019-01-05T14:28:40.511Z,9.19
2019-01-05T14:31:27.561Z,9.22
2019-01-05T14:33:58.779Z,9.12
2019-01-05T14:36:49.128Z,9.01
2019-01-05T14:39:20.380Z,8.95
2019-01-05T14:41:54.639Z,8.68
2019-01-05T14:44:25.889Z,8.49
2019-01-05T14:46:57.170Z,8.53
2019-01-05T14:49:31.321Z,8.36
2019-01-05T14:52:14.501Z,8.28
2019-01-05T14:54:57.695Z,8.21
2019-01-05T14:57:34.856Z,8.21
2019-01-05T15:00:23.618Z,8.17
2019-01-05T15:03:01.196Z,8.08
2019-01-05T15:05:48.983Z,8.05
2019-01-05T15:08:35.477Z,8.02
2019-01-05T15:11:18.595Z,7.95
2019-01-05T15:13:59.164Z,7.94
2019-01-05T15:16:45.776Z,7.91
2019-01-05T15:19:33.133Z,7.87
2019-01-05T15:22:04.467Z,7.87
2019-01-05T15:24:51.747Z,7.80
2019-01-05T15:27:26.278Z,7.73
2019-01-05T15:30:00.648Z,7.72
2019-01-05T15:32:48.142Z,7.68
2019-01-05T15:35:35.675Z,7.61
2019-01-05T15:38:06.911Z,7.58
2019-01-05T15:40:38.249Z,7.63
2019-01-05T15:43:24.810Z,7.52
2019-01-05T15:46:05.010Z,7.42
2019-01-05T15:48:36.451Z,7.39
2019-01-05T15:51:23.854Z,7.41
2019-01-05T15:54:01.232Z,7.43
2019-01-05T15:56:41.544Z,7.44
2019-01-05T15:59:28.784Z,7.60
2019-01-05T16:02:12.359Z,7.92
2019-01-05T16:04:59.908Z,7.82
2019-01-05T16:07:34.060Z,7.74
2019-01-05T16:10:21.703Z,7.66
2019-01-05T16:13:05.107Z,7.63
2019-01-05T16:15:52.980Z,7.79
2019-01-05T16:18:41.046Z,7.87
2019-01-05T16:21:24.200Z,7.70
2019-01-05T16:23:55.575Z,7.77
2019-01-05T16:26:32.663Z,7.70
2019-01-05T16:29:12.706Z,7.90
2019-01-05T16:31:46.865Z,7.57
2019-01-05T16:34:21.141Z,7.47
2019-01-05T16:37:10.463Z,7.41
2019-01-05T16:39:47.503Z,7.39
2019-01-05T16:42:21.499Z,7.37
2019-01-05T16:44:52.890Z,7.60
2019-01-05T16:47:26.750Z,7.55
2019-01-05T16:49:58.045Z,7.61
2019-01-05T16:52:44.415Z,7.47
2019-01-05T16:55:30.710Z,7.41
2019-01-05T16:58:04.947Z,7.32
2019-01-05T17:00:39.440Z,7.33
2019-01-05T17:03:16.545Z,7.24
2019-01-05T17:06:03.995Z,7.37
2019-01-05T17:08:50.397Z,7.38
2019-01-05T17:11:38.091Z,7.44
2019-01-05T17:14:25.637Z,7.27
2019-01-05T17:17:05.946Z,7.29
2019-01-05T17:19:37.222Z,7.37
2019-01-05T17:22:28.290Z,7.18
2019-01-05T17:25:15.791Z,7.30
2019-01-05T17:27:55.710Z,7.19
2019-01-05T17:30:43.110Z,7.04
2019-01-05T17:33:14.444Z,6.99
2019-01-05T17:35:51.612Z,7.20
2019-01-05T17:38:38.017Z,7.12
2019-01-05T17:41:12.049Z,7.10
2019-01-05T17:43:43.373Z,7.06
2019-01-05T17:46:23.368Z,7.03
2019-01-05T17:49:01.710Z,6.94
2019-01-05T17:51:49.005Z,6.78
2019-01-05T17:54:38.663Z,6.72
2019-01-05T17:57:09.929Z,6.68
2019-01-05T17:59:41.320Z,6.62
2019-01-05T18:02:18.574Z,6.68
2019-01-05T18:04:55.443Z,6.69
2019-01-05T18:07:26.780Z,6.64
2019-01-05T18:10:14.467Z,6.58
2019-01-05T18:12:48.714Z,6.48
2019-01-05T18:15:20.045Z,6.45
2019-01-05T18:17:51.371Z,6.39
2019-01-05T18:20:34.103Z,6.42
2019-01-05T18:23:20.697Z,6.36
2019-01-05T18:25:52.159Z,6.34
2019-01-05T18:28:29.195Z,6.28
2019-01-05T18:31:15.813Z,6.27
2019-01-05T18:34:02.874Z,6.19
2019-01-05T18:36:46.170Z,6.17
2019-01-05T18:39:24.003Z,6.17
2019-01-05T18:42:15.193Z,6.17
2019-01-05T18:44:46.847Z,6.09
2019-01-05T18:47:25.018Z,6.08
2019-01-05T18:50:05.451Z,5.96
2019-01-05T18:52:53.319Z,5.92
2019-01-05T18:55:27.947Z,5.93
2019-01-05T18:58:14.163Z,5.91
2019-01-05T19:00:59.182Z,5.92
2019-01-05T19:03:30.909Z,5.96
2019-01-05T19:06:05.357Z,5.87
2019-01-05T19:08:36.790Z,5.85
2019-01-05T19:11:11.298Z,5.80
2019-01-05T19:13:50.379Z,5.83
2019-01-05T19:16:33.901Z,5.79
2019-01-05T19:19:23.843Z,5.74
2019-01-05T19:22:10.352Z,5.66
2019-01-05T19:24:41.925Z,5.62
2019-01-05T19:27:16.229Z,5.57
2019-01-05T19:29:59.620Z,5.46
2019-01-05T19:32:40.158Z,5.38
2019-01-05T19:35:17.447Z,5.25
2019-01-05T20:20:13.133Z,3.87
2019-01-05T20:22:56.778Z,3.62
2019-01-05T20:25:50.181Z,3.60
2019-01-05T20:28:30.355Z,3.58
2019-01-05T20:34:31.646Z,3.52
2019-01-05T20:37:15.916Z,3.45
2019-01-05T20:40:28.195Z,3.43
2019-01-05T20:43:00.297Z,3.32
2019-01-05T20:45:39.439Z,3.10
2019-01-05T20:49:18.359Z,3.08
2019-01-05T20:51:39.706Z,3.10
2019-01-05T20:54:31.059Z,3.15
2019-01-05T20:57:26.029Z,3.10
2019-01-05T21:00:22.531Z,3.01
2019-01-05T21:03:16.760Z,2.86
2019-01-05T21:06:21.682Z,2.78
2019-01-05T21:08:49.213Z,2.76
2019-01-05T21:11:36.736Z,2.77
2019-01-05T21:14:41.417Z,2.76
2019-01-05T21:17:32.352Z,2.71
2019-01-05T21:20:41.888Z,2.63
2019-01-05T21:23:46.335Z,2.50
2019-01-05T21:26:56.455Z,2.47
2019-01-05T21:30:05.780Z,2.46
2019-01-05T21:33:01.728Z,2.38
2019-01-05T21:36:06.738Z,2.41
2019-01-05T21:38:52.475Z,2.40
2019-01-05T21:41:45.172Z,2.36
2019-01-05T21:48:06.673Z,2.37
2019-01-05T21:51:07.875Z,2.23
2019-01-05T21:54:44.787Z,2.19
2019-01-05T22:00:04.375Z,2.03
2019-01-05T22:06:00.057Z,2.02
2019-01-05T22:08:42.301Z,1.94
2019-01-05T22:11:39.500Z,1.95
2019-01-05T22:14:49.810Z,1.90
2019-01-05T22:18:02.686Z,1.85
2019-01-05T22:21:03.035Z,1.82
2019-01-05T22:24:01.292Z,1.79
2019-01-05T22:28:24.304Z,1.78
2019-01-05T22:29:50.643Z,1.68
2019-01-05T22:32:40.969Z,1.70
2019-01-05T22:35:50.968Z,1.61
2019-01-05T22:38:40.495Z,1.76
2019-01-05T22:41:58.673Z,1.75
2019-01-05T22:44:44.477Z,1.83
2019-01-05T22:47:28.057Z,1.76
2019-01-05T22:50:22.349Z,1.73
2019-01-05T22:53:19.094Z,1.62
2019-01-05T22:55:57.992Z,1.77
2019-01-05T22:58:59.049Z,1.88
2019-01-05T23:01:54.359Z,2.07
2019-01-05T23:04:53.663Z,2.02
2019-01-05T23:07:53.383Z,1.97
2019-01-05T23:10:49.652Z,2.10
2019-01-05T23:14:10.792Z,2.12
2019-01-05T23:19:36.216Z,2.39
2019-01-05T23:22:25.595Z,2.44
2019-01-05T23:35:17.320Z,2.49
2019-01-05T23:38:50.605Z,2.49
2019-01-05T23:58:12.168Z,2.31
